createdAt,value
2022-08-17T00:02:25.304Z,13.00
2022-08-17T00:04:55.072Z,13.13
2022-08-17T00:07:22.610Z,13.37
2022-08-17T00:09:49.636Z,12.60
2022-08-17T00:12:41.556Z,12.20
2022-08-17T00:15:05.664Z,12.97
2022-08-17T00:17:35.228Z,12.97
2022-08-17T00:20:02.322Z,12.33
2022-08-17T00:22:35.178Z,12.70
2022-08-17T00:25:07.397Z,12.73
2022-08-17T00:27:35.237Z,12.77
2022-08-17T00:30:02.164Z,12.20
2022-08-17T00:33:16.082Z,13.03
2022-08-17T00:35:19.471Z,12.63
2022-08-17T00:37:46.377Z,12.70
2022-08-17T00:40:15.245Z,11.93
2022-08-17T00:42:44.873Z,12.27
2022-08-17T00:45:15.152Z,12.20
2022-08-17T00:47:43.673Z,12.43
2022-08-17T00:50:13.635Z,11.90
2022-08-17T00:52:48.197Z,12.37
2022-08-17T00:55:15.370Z,11.47
2022-08-17T00:57:46.843Z,12.73
2022-08-17T01:00:26.497Z,11.97
2022-08-17T01:02:58.331Z,11.63
2022-08-17T01:05:28.979Z,11.93
2022-08-17T01:07:56.314Z,12.33
2022-08-17T01:10:58.348Z,12.73
2022-08-17T01:13:18.072Z,11.80
2022-08-17T01:16:00.470Z,12.60
2022-08-17T01:18:28.054Z,11.90
2022-08-17T01:20:57.768Z,12.20
2022-08-17T01:23:27.585Z,10.97
2022-08-17T01:25:57.820Z,11.13
2022-08-17T01:28:52.810Z,11.37
2022-08-17T01:31:15.551Z,11.30
2022-08-17T01:33:42.484Z,11.13
2022-08-17T01:36:09.771Z,11.23
2022-08-17T01:38:38.341Z,10.80
2022-08-17T01:41:15.388Z,11.67
2022-08-17T01:43:45.050Z,11.27
2022-08-17T01:46:18.727Z,10.97
2022-08-17T01:48:47.535Z,11.03
2022-08-17T01:51:16.035Z,11.27
2022-08-17T01:53:47.522Z,11.17
2022-08-17T01:56:18.936Z,12.20
2022-08-17T01:58:46.335Z,10.53
2022-08-17T02:01:18.575Z,12.00
2022-08-17T02:03:53.243Z,11.33
2022-08-17T02:06:28.451Z,10.80
2022-08-17T02:09:01.639Z,10.83
2022-08-17T02:11:29.206Z,11.70
2022-08-17T02:14:02.521Z,11.10
2022-08-17T02:16:37.942Z,12.40
2022-08-17T02:19:12.460Z,11.27
2022-08-17T02:21:41.825Z,11.33
2022-08-17T02:24:13.077Z,11.77
2022-08-17T02:26:42.114Z,11.90
2022-08-17T02:29:09.043Z,11.50
2022-08-17T02:31:36.000Z,11.47
2022-08-17T02:34:04.388Z,11.90
2022-08-17T02:36:35.832Z,11.37
2022-08-17T02:39:04.744Z,11.07
2022-08-17T02:41:32.376Z,12.17
2022-08-17T02:43:59.328Z,11.60
2022-08-17T02:46:26.862Z,11.20
2022-08-17T02:48:53.861Z,11.03
2022-08-17T02:51:20.720Z,11.27
2022-08-17T02:53:47.836Z,11.83
2022-08-17T02:56:14.708Z,11.43
2022-08-17T02:58:41.721Z,11.43
2022-08-17T03:01:10.127Z,11.30
2022-08-17T03:03:38.887Z,11.27
2022-08-17T03:06:07.747Z,11.03
2022-08-17T03:08:35.280Z,11.47
2022-08-17T03:11:02.202Z,11.33
2022-08-17T03:13:30.823Z,11.57
2022-08-17T03:15:58.521Z,11.40
2022-08-17T03:18:27.271Z,10.77
2022-08-17T03:20:59.850Z,11.33
2022-08-17T03:23:28.011Z,11.20
2022-08-17T03:25:57.287Z,11.40
2022-08-17T03:28:25.271Z,11.33
2022-08-17T03:30:52.292Z,11.73
2022-08-17T03:33:21.032Z,11.27
2022-08-17T03:35:48.392Z,11.77
2022-08-17T03:38:17.370Z,11.03
2022-08-17T03:40:57.136Z,11.57
2022-08-17T03:43:30.235Z,11.00
2022-08-17T03:46:28.897Z,11.60
2022-08-17T03:49:25.652Z,11.30
2022-08-17T03:52:16.143Z,11.40
2022-08-17T03:55:02.374Z,11.70
2022-08-17T03:57:30.561Z,11.20
2022-08-17T03:59:57.504Z,11.17
2022-08-17T04:02:32.957Z,11.40
2022-08-17T04:05:00.563Z,10.93
2022-08-17T04:07:30.295Z,11.07
2022-08-17T04:09:58.288Z,10.90
2022-08-17T04:12:26.220Z,11.03
2022-08-17T04:14:54.878Z,10.83
2022-08-17T04:17:27.388Z,11.00
2022-08-17T04:19:55.307Z,10.97
2022-08-17T04:22:30.387Z,10.60
2022-08-17T04:25:03.372Z,10.90
2022-08-17T04:27:30.210Z,11.00
2022-08-17T04:29:57.166Z,11.47
2022-08-17T04:33:04.386Z,11.33
2022-08-17T04:35:11.363Z,11.47
2022-08-17T04:37:38.243Z,11.60
2022-08-17T04:40:26.057Z,11.50
2022-08-17T04:43:10.089Z,11.37
2022-08-17T04:45:56.857Z,11.03
2022-08-17T04:48:36.522Z,11.00
2022-08-17T04:51:11.349Z,11.30
2022-08-17T04:53:40.648Z,11.70
2022-08-17T04:56:16.097Z,11.97
2022-08-17T04:58:50.612Z,11.73
2022-08-17T05:01:23.390Z,12.30
2022-08-17T05:03:56.138Z,12.10
2022-08-17T05:06:23.617Z,12.27
2022-08-17T05:08:50.634Z,12.60
2022-08-17T05:11:18.278Z,12.10
2022-08-17T05:13:45.336Z,12.60
2022-08-17T05:16:12.404Z,12.60
2022-08-17T05:18:39.561Z,12.43
2022-08-17T05:21:07.572Z,11.80
2022-08-17T05:23:42.730Z,12.43
2022-08-17T05:26:25.726Z,12.90
2022-08-17T05:29:02.467Z,12.77
2022-08-17T05:31:31.105Z,12.90
2022-08-17T05:33:58.285Z,12.30
2022-08-17T05:36:37.986Z,11.93
2022-08-17T05:39:16.164Z,12.60
2022-08-17T05:41:44.010Z,13.30
2022-08-17T05:44:11.004Z,12.50
2022-08-17T05:46:41.770Z,13.40
2022-08-17T05:49:09.594Z,12.30
2022-08-17T05:52:07.572Z,12.20
2022-08-17T05:54:56.585Z,12.80
2022-08-17T05:57:52.953Z,12.40
2022-08-17T06:00:30.199Z,11.97
2022-08-17T06:03:27.572Z,12.43
2022-08-17T06:06:06.609Z,13.30
2022-08-17T06:09:22.816Z,12.30
2022-08-17T06:12:19.939Z,12.20
2022-08-17T06:15:02.065Z,12.47
2022-08-17T06:17:30.310Z,13.33
2022-08-17T06:20:03.079Z,13.37
2022-08-17T06:22:34.603Z,13.70
2022-08-17T06:25:12.646Z,13.20
2022-08-17T06:27:45.327Z,13.43
2022-08-17T06:30:27.702Z,14.17
2022-08-17T06:32:59.607Z,13.70
2022-08-17T06:35:39.902Z,13.60
2022-08-17T06:38:34.981Z,15.03
2022-08-17T06:41:16.666Z,16.43
2022-08-17T06:43:56.813Z,14.13
2022-08-17T06:46:48.786Z,13.77
2022-08-17T06:49:44.743Z,14.17
2022-08-17T06:52:45.812Z,14.00
2022-08-17T06:56:09.486Z,14.40
2022-08-17T06:58:40.243Z,14.70
2022-08-17T07:01:14.219Z,14.13
2022-08-17T07:04:19.629Z,14.00
2022-08-17T07:07:27.036Z,14.27
2022-08-17T07:09:56.748Z,13.87
2022-08-17T07:12:29.690Z,12.80
2022-08-17T07:15:06.114Z,14.53
2022-08-17T07:17:46.522Z,13.20
2022-08-17T07:20:17.925Z,13.90
2022-08-17T07:23:09.017Z,13.50
2022-08-17T07:25:35.858Z,13.27
2022-08-17T07:28:05.377Z,13.67
2022-08-17T07:30:44.670Z,13.07
2022-08-17T07:33:27.246Z,13.87
2022-08-17T07:35:57.379Z,13.10
2022-08-17T07:38:29.468Z,13.57
2022-08-17T07:41:02.485Z,13.23
2022-08-17T07:43:41.693Z,13.80
2022-08-17T07:46:29.859Z,12.97
2022-08-17T07:49:03.176Z,13.37
2022-08-17T07:51:32.415Z,12.97
2022-08-17T07:54:14.641Z,13.30
2022-08-17T07:57:00.449Z,13.20
2022-08-17T07:59:33.716Z,13.50
2022-08-17T08:02:02.384Z,13.97
2022-08-17T08:07:27.235Z,13.57
2022-08-17T08:10:09.250Z,14.07
2022-08-17T08:12:46.208Z,13.10
2022-08-17T08:15:23.555Z,13.27
2022-08-17T08:18:00.399Z,12.93
2022-08-17T08:20:52.387Z,14.30
2022-08-17T08:23:20.774Z,13.97
2022-08-17T08:26:03.329Z,14.73
2022-08-17T08:28:39.421Z,14.47
2022-08-17T08:31:26.264Z,14.40
2022-08-17T08:33:59.529Z,15.23
2022-08-17T08:37:14.314Z,14.50
2022-08-17T08:39:52.066Z,14.47
2022-08-17T08:42:44.942Z,14.77
2022-08-17T08:45:33.966Z,13.77
2022-08-17T08:48:53.432Z,14.63
2022-08-17T08:51:33.123Z,13.23
2022-08-17T08:54:31.724Z,12.77
2022-08-17T08:57:28.052Z,12.73
2022-08-17T09:00:17.613Z,12.47
2022-08-17T09:03:09.386Z,13.20
2022-08-17T09:06:00.411Z,12.60
2022-08-17T09:08:27.381Z,13.10
2022-08-17T09:11:11.719Z,13.00
2022-08-17T09:14:22.054Z,13.87
2022-08-17T09:17:05.865Z,16.10
2022-08-17T09:19:42.879Z,16.67
2022-08-17T09:22:20.713Z,14.10
2022-08-17T09:24:58.445Z,14.50
2022-08-17T09:27:41.317Z,14.37
2022-08-17T09:30:10.993Z,16.00
2022-08-17T09:32:44.056Z,12.43
2022-08-17T09:35:25.104Z,14.00
2022-08-17T09:38:07.592Z,17.67
2022-08-17T09:40:43.476Z,16.80
2022-08-17T09:44:01.636Z,13.13
2022-08-17T09:46:38.993Z,13.80
2022-08-17T09:49:26.604Z,14.07
2022-08-17T09:52:03.170Z,14.13
2022-08-17T09:54:40.366Z,13.83
2022-08-17T09:57:31.630Z,15.17
2022-08-17T10:00:09.858Z,14.00
2022-08-17T10:03:00.335Z,15.07
2022-08-17T10:05:39.560Z,15.43
2022-08-17T10:08:29.466Z,15.67
2022-08-17T10:11:00.066Z,17.10
2022-08-17T10:13:54.111Z,16.83
2022-08-17T10:16:44.011Z,13.50
2022-08-17T10:19:30.337Z,16.93
2022-08-17T10:22:34.710Z,15.47
2022-08-17T10:25:27.785Z,14.70
2022-08-17T10:28:19.752Z,14.40
2022-08-17T10:31:05.243Z,14.00
2022-08-17T10:34:20.755Z,13.97
2022-08-17T10:37:13.994Z,13.93
2022-08-17T10:39:53.044Z,14.77
2022-08-17T10:42:45.794Z,14.40
2022-08-17T10:45:29.590Z,14.83
2022-08-17T10:48:07.461Z,14.93
2022-08-17T10:50:53.146Z,14.10
2022-08-17T10:53:31.904Z,14.33
2022-08-17T10:56:14.128Z,13.97
2022-08-17T10:58:49.912Z,17.17
2022-08-17T11:01:17.960Z,15.57
2022-08-17T11:03:57.335Z,14.20
2022-08-17T11:07:16.820Z,13.00
2022-08-17T11:10:01.947Z,14.67
2022-08-17T11:12:54.364Z,13.80
2022-08-17T11:15:21.287Z,13.80
2022-08-17T11:18:01.657Z,14.20
2022-08-17T11:21:06.213Z,14.40
2022-08-17T11:24:14.268Z,14.13
2022-08-17T11:26:48.857Z,13.60
2022-08-17T11:29:24.779Z,16.20
2022-08-17T11:32:08.344Z,13.57
2022-08-17T11:34:40.546Z,14.03
2022-08-17T11:37:12.229Z,13.07
2022-08-17T11:39:54.425Z,15.23
2022-08-17T11:42:34.442Z,16.00
2022-08-17T11:45:32.116Z,14.00
2022-08-17T11:48:44.236Z,13.50
2022-08-17T11:51:35.292Z,14.73
2022-08-17T11:54:32.866Z,13.23
2022-08-17T11:57:21.778Z,14.90
2022-08-17T11:59:48.674Z,14.20
2022-08-17T12:02:32.474Z,18.27
2022-08-17T12:05:14.680Z,13.33
2022-08-17T12:07:52.943Z,14.00
2022-08-17T12:10:31.627Z,13.47
2022-08-17T12:13:10.316Z,13.23
2022-08-17T12:15:43.517Z,13.80
2022-08-17T12:18:19.801Z,14.23
2022-08-17T12:21:01.554Z,14.20
2022-08-17T12:24:04.682Z,13.97
2022-08-17T12:26:34.845Z,14.47
2022-08-17T12:29:18.075Z,13.73
2022-08-17T12:32:03.795Z,13.67
2022-08-17T12:34:41.278Z,13.80
2022-08-17T12:37:20.656Z,14.97
2022-08-17T12:40:00.810Z,14.17
2022-08-17T12:42:37.312Z,14.67
2022-08-17T12:45:21.191Z,14.50
2022-08-17T12:47:48.180Z,14.43
2022-08-17T12:50:28.699Z,14.23
2022-08-17T12:53:01.609Z,12.93
2022-08-17T12:55:35.897Z,14.30
2022-08-17T12:58:03.320Z,13.73
2022-08-17T13:00:33.537Z,14.07
2022-08-17T13:03:21.102Z,14.00
2022-08-17T13:06:01.346Z,13.90
2022-08-17T13:08:38.441Z,14.17
2022-08-17T13:11:09.471Z,14.10
2022-08-17T13:13:39.780Z,14.00
2022-08-17T13:16:12.725Z,14.13
2022-08-17T13:18:42.582Z,12.83
2022-08-17T13:21:19.780Z,12.97
2022-08-17T13:24:11.130Z,14.70
2022-08-17T13:26:42.139Z,15.03
2022-08-17T13:29:33.783Z,13.23
2022-08-17T13:32:11.569Z,13.57
2022-08-17T13:35:01.636Z,13.70
2022-08-17T13:37:34.199Z,13.07
2022-08-17T13:40:09.845Z,14.43
2022-08-17T13:42:50.208Z,15.27
2022-08-17T13:45:35.564Z,14.90
2022-08-17T13:48:19.477Z,16.03
2022-08-17T13:50:55.489Z,14.27
2022-08-17T13:53:27.057Z,15.40
2022-08-17T13:56:02.460Z,15.30
2022-08-17T13:58:35.425Z,14.50
2022-08-17T14:01:28.413Z,13.57
2022-08-17T14:03:56.333Z,1.53
2022-08-17T14:06:52.871Z,2.27
2022-08-17T14:09:14.272Z,10.77
2022-08-17T14:11:42.298Z,14.20
2022-08-17T14:14:09.362Z,15.20
2022-08-17T14:16:41.775Z,14.40
2022-08-17T14:19:12.725Z,13.50
2022-08-17T14:21:44.781Z,13.53
2022-08-17T14:24:24.115Z,12.93
2022-08-17T14:26:53.027Z,13.47
2022-08-17T14:29:24.865Z,13.70
2022-08-17T14:31:54.190Z,14.00
2022-08-17T14:34:22.473Z,13.67
2022-08-17T14:36:49.663Z,13.87
2022-08-17T14:39:17.731Z,14.93
2022-08-17T14:41:45.333Z,13.47
2022-08-17T14:44:12.645Z,13.57
2022-08-17T14:46:41.211Z,13.80
2022-08-17T14:49:10.745Z,12.90
2022-08-17T14:51:43.727Z,12.87
2022-08-17T14:54:33.566Z,13.57
2022-08-17T14:57:22.782Z,13.17
2022-08-17T14:59:54.741Z,14.90
2022-08-17T15:02:30.059Z,23.53
2022-08-17T15:05:05.441Z,15.17
2022-08-17T15:07:32.484Z,16.20
2022-08-17T15:10:01.380Z,15.20
2022-08-17T15:12:32.850Z,16.00
2022-08-17T15:15:01.123Z,16.67
2022-08-17T15:17:45.186Z,15.13
2022-08-17T15:20:20.325Z,17.30
2022-08-17T15:22:55.306Z,15.40
2022-08-17T15:25:23.885Z,18.60
2022-08-17T15:27:50.980Z,17.33
2022-08-17T15:30:18.294Z,16.93
2022-08-17T15:32:51.416Z,16.83
2022-08-17T15:35:27.084Z,13.20
2022-08-17T15:38:07.845Z,14.93
2022-08-17T15:40:40.178Z,13.30
2022-08-17T15:43:13.391Z,14.23
2022-08-17T15:45:40.779Z,16.33
2022-08-17T15:48:08.960Z,14.23
2022-08-17T15:50:36.327Z,1.77
2022-08-17T15:53:04.957Z,13.47
2022-08-17T15:55:33.428Z,15.70
2022-08-17T15:58:01.126Z,14.00
2022-08-17T16:00:29.414Z,16.70
2022-08-17T16:03:46.107Z,14.87
2022-08-17T16:05:46.911Z,14.80
2022-08-17T16:08:20.176Z,12.87
2022-08-17T16:10:49.753Z,13.37
2022-08-17T16:13:18.376Z,13.90
2022-08-17T16:15:54.823Z,13.43
2022-08-17T16:18:27.438Z,13.03
2022-08-17T16:20:55.057Z,13.20
2022-08-17T16:23:22.065Z,14.53
2022-08-17T16:25:53.327Z,13.93
2022-08-17T16:28:21.877Z,13.47
2022-08-17T16:30:49.031Z,12.87
2022-08-17T16:33:17.009Z,13.60
2022-08-17T16:35:44.036Z,13.13
2022-08-17T16:38:12.512Z,14.07
2022-08-17T16:40:40.522Z,14.53
2022-08-17T16:43:12.064Z,13.87
2022-08-17T16:45:40.733Z,14.23
2022-08-17T16:48:09.104Z,14.10
2022-08-17T16:50:36.823Z,13.57
2022-08-17T16:53:10.664Z,14.30
2022-08-17T16:55:38.299Z,13.93
2022-08-17T16:58:06.421Z,13.97
2022-08-17T17:00:34.453Z,12.77
2022-08-17T17:03:20.228Z,13.37
2022-08-17T17:06:15.015Z,13.00
2022-08-17T17:08:56.032Z,13.43
2022-08-17T17:11:57.490Z,12.23
2022-08-17T17:14:28.685Z,12.50
2022-08-17T17:17:20.181Z,12.77
2022-08-17T17:20:02.834Z,11.93
2022-08-17T17:22:41.323Z,13.37
2022-08-17T17:25:11.606Z,12.30
2022-08-17T17:27:56.843Z,12.30
2022-08-17T17:30:25.167Z,12.20
2022-08-17T17:32:58.948Z,11.80
2022-08-17T17:35:31.715Z,13.30
2022-08-17T17:38:15.112Z,11.80
2022-08-17T17:40:45.769Z,11.90
2022-08-17T17:43:37.837Z,11.90
2022-08-17T17:46:38.634Z,11.23
2022-08-17T17:49:10.699Z,12.13
2022-08-17T17:52:09.454Z,11.47
2022-08-17T17:54:43.714Z,11.57
2022-08-17T17:57:21.383Z,12.27
2022-08-17T18:00:20.774Z,12.03
2022-08-17T18:03:09.457Z,11.97
2022-08-17T18:05:51.241Z,12.07
2022-08-17T18:08:42.221Z,17.67
2022-08-17T18:11:25.503Z,12.30
2022-08-17T18:14:14.434Z,12.13
2022-08-17T18:16:42.991Z,11.60
2022-08-17T18:19:21.538Z,11.57
2022-08-17T18:22:13.096Z,11.80
2022-08-17T18:24:44.223Z,11.80
2022-08-17T18:27:24.651Z,11.93
2022-08-17T18:29:55.092Z,12.20
2022-08-17T18:32:28.166Z,11.47
2022-08-17T18:35:02.615Z,12.27
2022-08-17T18:37:32.265Z,11.30
2022-08-17T18:39:59.433Z,12.17
2022-08-17T18:42:29.361Z,11.87
2022-08-17T18:44:56.476Z,11.93
2022-08-17T18:47:26.813Z,11.67
2022-08-17T18:49:58.464Z,11.47
2022-08-17T18:52:30.315Z,11.33
2022-08-17T18:55:10.992Z,10.77
2022-08-17T18:57:45.170Z,16.47
2022-08-17T19:00:34.531Z,16.87
2022-08-17T19:03:05.696Z,12.13
2022-08-17T19:05:43.214Z,16.03
2022-08-17T19:08:23.174Z,11.67
2022-08-17T19:10:58.640Z,12.13
2022-08-17T19:13:38.969Z,11.60
2022-08-17T19:16:31.763Z,11.50
2022-08-17T19:19:07.932Z,11.13
2022-08-17T19:21:47.686Z,11.37
2022-08-17T19:24:21.537Z,11.47
2022-08-17T19:26:56.843Z,11.57
2022-08-17T19:29:36.510Z,11.53
2022-08-17T19:32:05.332Z,11.10
2022-08-17T19:34:36.532Z,10.77
2022-08-17T19:37:24.017Z,11.53
2022-08-17T19:40:24.479Z,10.43
2022-08-17T19:43:28.035Z,10.67
2022-08-17T19:46:09.793Z,10.60
2022-08-17T19:48:54.470Z,10.10
2022-08-17T19:51:34.107Z,10.47
2022-08-17T19:54:16.504Z,11.00
2022-08-17T19:56:50.610Z,11.13
2022-08-17T19:59:49.493Z,11.90
2022-08-17T20:02:25.015Z,11.30
2022-08-17T20:04:54.988Z,11.20
2022-08-17T20:07:37.376Z,11.17
2022-08-17T20:10:08.339Z,11.60
2022-08-17T20:12:38.086Z,11.60
2022-08-17T20:15:25.990Z,10.70
2022-08-17T20:17:53.726Z,10.67
2022-08-17T20:20:35.893Z,10.37
2022-08-17T20:23:22.422Z,10.93
2022-08-17T20:25:55.230Z,10.80
2022-08-17T20:28:30.691Z,11.10
2022-08-17T20:30:58.950Z,11.27
2022-08-17T20:33:34.087Z,11.97
2022-08-17T20:36:16.024Z,10.47
2022-08-17T20:38:47.310Z,11.67
2022-08-17T20:41:15.702Z,12.00
2022-08-17T20:43:51.058Z,12.27
2022-08-17T20:46:35.913Z,11.63
2022-08-17T20:49:08.770Z,13.43
2022-08-17T20:52:01.264Z,11.57
2022-08-17T20:54:51.011Z,12.33
2022-08-17T20:57:33.291Z,12.73
2022-08-17T21:00:17.107Z,12.03
2022-08-17T21:02:50.435Z,12.37
2022-08-17T21:05:58.819Z,12.00
2022-08-17T21:08:32.264Z,12.40
2022-08-17T21:11:00.918Z,11.80
2022-08-17T21:13:46.108Z,11.80
2022-08-17T21:16:38.918Z,11.83
2022-08-17T21:19:17.103Z,11.27
2022-08-17T21:21:58.367Z,12.33
2022-08-17T21:24:37.600Z,12.00
2022-08-17T21:27:24.823Z,13.40
2022-08-17T21:30:09.490Z,12.47
2022-08-17T21:32:40.450Z,12.23
2022-08-17T21:35:23.514Z,12.90
2022-08-17T21:37:54.133Z,13.00
2022-08-17T21:40:29.695Z,11.67
2022-08-17T21:42:59.081Z,12.07
2022-08-17T21:45:36.500Z,12.07
2022-08-17T21:48:06.840Z,12.43
2022-08-17T21:50:34.378Z,12.03
2022-08-17T21:53:03.197Z,12.03
2022-08-17T21:55:32.657Z,12.23
2022-08-17T21:58:13.848Z,12.07
2022-08-17T22:00:44.732Z,11.67
2022-08-17T22:03:24.128Z,11.37
2022-08-17T22:05:51.576Z,12.00
2022-08-17T22:08:24.656Z,11.67
2022-08-17T22:11:00.933Z,12.57
2022-08-17T22:13:29.733Z,12.20
2022-08-17T22:16:15.574Z,11.90
2022-08-17T22:18:53.692Z,11.70
2022-08-17T22:21:22.562Z,12.43
2022-08-17T22:24:15.490Z,11.80
2022-08-17T22:27:03.813Z,11.63
2022-08-17T22:29:44.533Z,11.63
2022-08-17T22:32:29.460Z,11.87
2022-08-17T22:35:38.788Z,12.43
2022-08-17T22:38:21.113Z,13.20
2022-08-17T22:41:17.035Z,12.13
2022-08-17T22:43:44.770Z,12.00
2022-08-17T22:46:12.617Z,11.70
2022-08-17T22:48:48.768Z,12.37
2022-08-17T22:51:23.318Z,12.10
2022-08-17T22:54:13.378Z,12.33
2022-08-17T22:57:10.320Z,11.90
2022-08-17T23:00:00.590Z,11.97
2022-08-17T23:02:33.563Z,12.00
2022-08-17T23:05:16.800Z,11.90
2022-08-17T23:07:45.934Z,12.50
2022-08-17T23:10:13.770Z,12.00
2022-08-17T23:12:40.859Z,12.30
2022-08-17T23:15:15.794Z,11.27
2022-08-17T23:17:43.245Z,11.43
2022-08-17T23:20:15.105Z,11.70
2022-08-17T23:22:51.241Z,12.37
2022-08-17T23:25:26.489Z,12.40
2022-08-17T23:27:53.761Z,10.70
2022-08-17T23:30:20.872Z,11.57
2022-08-17T23:32:53.824Z,11.43
2022-08-17T23:35:39.102Z,11.30
2022-08-17T23:38:09.270Z,11.37
2022-08-17T23:40:37.817Z,11.30
2022-08-17T23:43:23.551Z,11.90
2022-08-17T23:45:57.679Z,12.13
2022-08-17T23:48:35.173Z,11.63
2022-08-17T23:51:06.016Z,10.73
2022-08-17T23:53:36.309Z,11.67
2022-08-17T23:56:09.636Z,11.80
2022-08-17T23:58:45.030Z,12.00
